66VA weather

Ibm Building 110 Heliport
Manassas, Virginia, United States

Public forecast

Using degrees Fahrenheit for public forecast. Weather courtesy of forecast.io.

METAR (pilot weather report)

Closest report is Manassas Regional Airport/Harry P. Davis Field, 2.1 nm (3.9 km) SSW. Retrieved 2019/05/20 23:56 UTC (10 minutes ago):

KHEF 202356Z 33006KT 10SM CLR 26/15 A2981 RMK AO2 SLP101 6//// T02610150 10322 20261 53007 PNO $

TAF (pilot weather forecast)

Forecast is more than 12 hours old.

Closest forecast is Washington Dulles International Airport, 11.6 nm (21.5 km) N. Retrieved 2019/05/20 00:39 UTC (23 hours ago):

TAF KIAD 202336Z 2100/2206 30008KT P6SM SKC FM211200 33013G18KT P6SM FEW150 FM211600 33010KT P6SM FEW150 FM220300 35005KT P6SM FEW110